x

South Hatteras - 225 South Of Cape Hatteras (41002) Wave Buoy

8:50pm - Sat 30th Jul 2016 All times are EDT. -4 hours from GMT.

  • Sig Wave height 2.3ft
  • Swell Direction
  • Peak Period 5s
  • Average Period 4s
  • Wind
    13mph, 16mph gusts
  • Sea Temp 85°f
  • Air Temp 85°f
  • Sea Pressure 1018.3mb
  • South Hatteras - 225 South Of Cape Hatteras
  • South Hatteras - 225 South Of Cape Hatteras

More Historic Weather Station data

Upgrade to MSW Pro to gain access to the past 30 days of data for over 8000 Wavebouys and Weather Stations around the globe.

Join Pro

Comparision Forecast

View Surf forecast
   
Sat 07/30 8:50pm 2.5ft 5s 4s 13 16 mph 1018.3mb 85f 85f
7:50pm 2.5ft 5s 5s 13
mph
1017.8mb 86f 85f
6:50pm 2.5ft 5s 5s 9 11 mph 1017.5mb 86f 85f
5:50pm 2.5ft 6s 5s 9 11 mph 1017mb 86f 85f
4:50pm 2.5ft 6s 5s 7 9 mph 1017.3mb 86f 85f
3:50pm 2.5ft 5s 5s 9
mph
1017.8mb 85f 85f
2:50pm 2.5ft 6s 5s 9 11 mph 1018.4mb 85f 85f
1:50pm 2.5ft 6s 5s 11 13 mph 1018.5mb 85f 85f
12:50pm 2.5ft 6s 5s 11 13 mph 1018.5mb 85f 85f
11:50am 2.5ft 6s 5s 11 13 mph 1018.5mb 85f 85f
10:50am 3ft 6s 5s 11 13 mph 1018.3mb 85f 84f
9:50am 3ft 6s 5s 11 13 mph 1018.2mb 85f 84f
8:50am 2.5ft 6s 5s 11 13 mph 1018mb 84f 84f
7:50am 2.5ft 6s 5s 11 13 mph 1017.6mb 84f 84f
6:50am 2.5ft 6s 5s 11 13 mph 1017mb 84f 84f
5:50am 3ft 6s 5s 11 13 mph 1016.4mb 84f 84f
4:50am 3ft 6s 5s 11 13 mph 1015.9mb 84f 84f
1:50am 3ft 7s 5s 9 11 mph 1016.3mb 85f 84f
12:50am 3.5ft 7s 5s 11
mph
1016.3mb 85f 84f
Fri 07/29 11:50pm 3.5ft 7s 5s 11 13 mph 1016.6mb 85f 84f
10:50pm 3.5ft 6s 5s 11 13 mph 1016.7mb 85f 85f
9:50pm 3.5ft 6s 5s 11 13 mph 1016mb 85f 85f
8:50pm 3.5ft 7s 5s 11 13 mph 1015.8mb 85f 85f
7:50pm 3.5ft 7s 5s 11
mph
1015.6mb 85f 85f
6:50pm 3.5ft 6s 5s 9 11 mph 1015.3mb 85f 85f
5:50pm 4ft 6s 5s 11
mph
1015.3mb 85f 85f
4:50pm 3.5ft 6s 5s 11 13 mph 1015.5mb 86f 85f
3:50pm 4ft 6s 5s 11 13 mph 1015.7mb 85f 85f
2:50pm 3.5ft 6s 5s 11
mph
1015.9mb 85f 85f
1:50pm 3.5ft 6s 5s 11
mph
1016mb 85f 85f
12:50pm 3.5ft 6s 5s 11 13 mph 1016.3mb 85f 85f
11:50am 3ft 6s 5s 11 13 mph 1016.5mb 85f 85f
10:50am 3ft 6s 5s 9 11 mph 1016.7mb 85f 84f
9:50am 3ft 6s 5s 11 13 mph 1016.6mb 85f 84f
8:50am 3.5ft 6s 5s 9 11 mph 1016.7mb 84f 84f
7:50am 3ft 6s 5s 9 11 mph 1016.2mb 84f 84f
6:50am 3.5ft 6s 5s 9 11 mph 1016mb 84f 83f
5:50am 3.5ft 7s 5s 9 11 mph 1015.4mb 84f 83f
4:50am 3.5ft 6s 5s 9 11 mph 1015.2mb 84f 83f
3:50am 3.5ft 6s 5s 9 11 mph 1015.3mb 84f 83f
2:50am 3.5ft 7s 5s 9 11 mph 1015.4mb 84f 84f
1:50am 3.5ft 7s 5s 11
mph
1015.4mb 84f 84f
12:50am 3.5ft 7s 5s 9 11 mph 1015.8mb 84f 84f
Thu 07/28 11:50pm 3.5ft 6s 5s 11 13 mph 1015.9mb 84f 84f
10:50pm 3.5ft 6s 5s 11 13 mph 1015.7mb 85f 84f
9:50pm 3.5ft 6s 5s 11 13 mph 1015.8mb 85f 84f
8:50pm 3.5ft 6s 5s 9 11 mph 1015.3mb 85f 84f
7:50pm 3.5ft 6s 5s 7 11 mph 1015.1mb 85f 84f
6:50pm 3.5ft 6s 5s 11 13 mph 1015.3mb 85f 84f
5:50pm 3.5ft 6s 5s 13
mph
1015.1mb 85f 84f
4:50pm 3ft 6s 5s 9 11 mph 1015.1mb 85f 84f
3:50pm 3.5ft 6s 5s 9 11 mph 1015.3mb 85f 83f
2:50pm 3.5ft 6s 5s 9 11 mph 1015.7mb 85f 84f
1:50pm 3.5ft 6s 5s 16 18 mph 1016mb 85f 82f
12:50pm 3.5ft 6s 5s 18 20 mph 1016.5mb 85f 82f
11:50am 3.5ft 6s 5s 9 11 mph 1016.7mb 85f 83f
10:50am 3.5ft 5s 5s 9 18 mph 1016.9mb 85f 84f
9:50am 3.5ft 5s 4s 9 11 mph 1017.1mb 84f 84f
8:50am 3ft 6s 4s 9 11 mph 1017.2mb 84f 84f
7:50am 3ft 6s 4s 13 16 mph 1017.1mb 84f 84f
6:50am 3ft 6s 4s 16 20 mph 1016.3mb 84f 84f
5:50am 3ft 6s 4s 16 18 mph 1015.7mb 84f 84f
4:50am 3ft 6s 5s 13 16 mph 1015.1mb 84f 84f
3:50am 3ft 5s 5s 13 16 mph 1015.3mb 85f 84f
2:50am 3ft 6s 5s 13 16 mph 1015.8mb 85f 84f
1:50am 3ft 6s 5s 13
mph
1016.1mb 85f 84f
12:50am 3.5ft 6s 5s 13 16 mph 1016.5mb 85f 84f
Wed 07/27 11:50pm 3.5ft 6s 5s 13
mph
1016.8mb 85f 84f
10:50pm 3.5ft 6s 5s 13 16 mph 1016.5mb 85f 84f
9:50pm 3.5ft 6s 5s 11 13 mph 1016.4mb 85f 84f
8:50pm 3.5ft 6s 5s 13 16 mph 1016.1mb 85f 84f
7:50pm 3.5ft 6s 5s 13 16 mph 1016.2mb 85f 83f
6:50pm 3.5ft 6s 5s 11 13 mph 1016.1mb 85f 85f
5:50pm 3.5ft 6s 5s 9 11 mph 1016.3mb 85f 85f
4:50pm 3.5ft 6s 5s 11 13 mph 1016.5mb 85f 85f
3:50pm 4ft 6s 5s 11 13 mph 1016.8mb 85f 85f
2:50pm 4ft 6s 5s 11 13 mph 1017.3mb 85f 85f
1:50pm 3.5ft 6s 5s 13
mph
1017.8mb 85f 85f
12:50pm 4ft 5s 5s 13 16 mph 1017.8mb 85f 85f
11:50am 3.5ft 5s 5s 13 18 mph 1017.7mb 84f 85f
10:50am 3.5ft 5s 4s 13 18 mph 1017.4mb 84f 85f
9:50am 3.5ft 5s 4s 13 16 mph 1017.6mb 84f 84f
7:50am 3.5ft 5s 4s 16 20 mph 1017.5mb 84f 84f
6:50am 3ft 4s 4s 16 18 mph 1017.5mb 84f 84f
5:50am 3ft 5s 4s 13 16 mph 1017.6mb 84f 83f
4:50am 2.5ft 8s 4s 16 18 mph 1017.2mb 84f 84f
3:50am 2.5ft 4s 4s 16 18 mph 1017mb 84f 84f
2:50am 2.5ft 8s 4s 13 18 mph 1017.2mb 84f 84f